YPPF weather

Adelaide Parafield Airport
Adelaide, South Australia, Australia

Public forecast

Using degrees Celsius for public forecast. Weather courtesy of forecast.io.

METAR (pilot weather report)

Closest report is Adelaide International Airport, 10.4 nm (19.3 km) SSW. Retrieved 2017/08/18 09:30 UTC (15 minutes ago):

YPAD 180930Z 22010KT 9999 FEW028 12/06 Q1025 NOSIG

TAF (pilot weather forecast)

Closest forecast is Adelaide International Airport, 10.4 nm (19.3 km) SSW. Retrieved 2017/08/18 06:00 UTC (4 hours ago):

TAF YPAD 180517Z 1806/1912 24018KT 9999 -SHRA SCT045 FM180900 22013KT 9999 -SHRA SCT030 SCT045 FM181800 20008KT 9999 FEW030 FM191000 12005KT 9999 SCT040